Englewood, CO (80110)

6:15 PM MDT on September 02, 2015 (GMT -0600)
South Broadway Heights | | Change Station
CLOSE
Current Station
Personal Weather Station
Location: Englewood, CO
Elevation: 5387 ft
Nearby Weather Stations

Elev 5387 ft 39.65 °N, 104.98 °W | Updated 1 minute ago

Mostly Cloudy
Mostly Cloudy
82.7 °F
Feels Like 81 °F
N
0.0
Wind Variable Wind from South
Gusts 0.0 mph

Today
High -- | Low -- °F
--% Chance of Precip.
Yesterday
High -- | Low -- °F
Precip. -- in
6:28 AM 7:29 PM
Waning Gibbous, 76% visible
Pressure 29.81 in
Visibility 10.0 miles
Clouds Few 12000 ft
Scattered Clouds 14000 ft
Mostly Cloudy 22000 ft
Heat Index 81 °F
Dew Point 46 °F
Humidity 28%
Rainfall 0.00 in
Snow Depth Not available.
UV 1 out of 12
Pollen 10.50 out of 12
Air Quality Not available.
Flu Activity Not available.
METAR KAPA 022353Z 16007KT 10SM FEW120 SCT140 BKN220 30/02 A3005 RMK AO2 SLP092 VIRGA DSNT SW-W T03000017 10317 20278 56011
Pressure 29.81 in
Visibility 10.0 miles
Clouds Few 12000 ft
Scattered Clouds 14000 ft
Mostly Cloudy 22000 ft
Heat Index 81 °F
Dew Point 46 °F
Humidity 28%
Rainfall 0.00 in
Snow Depth Not available.
UV 1 out of 12
Pollen 10.50 out of 12
Air Quality Not available.
Flu Activity Not available.
METAR KAPA 022353Z 16007KT 10SM FEW120 SCT140 BKN220 30/02 A3005 RMK AO2 SLP092 VIRGA DSNT SW-W T03000017 10317 20278 56011

10-Day Weather Forecast

×

Almanac

Astronomy

Sep. 02, 2015 Rise Set
Actual Time
Civil Twilight
Nautical Twilight
Astronomical Twilight
Moon
Length of Visible Light
Length of Day
Tomorrow will be .
, % of the Moon is Illuminated

Today's Extremes

State Highs State Lows

Community

WunderPhotos

Upload Photos

1,851,846 photos uploaded!

WunderBlogs® & News

Nearby

Air Quality

  Air Quality AQ Index Pollutant
Not available.

Snow Depth

Station Depth Elevation

Earthquake Activity

City Distance Mag. Time & Date
Minimum magnitude displayed is 2.5.

Coastal Water Temperatures

Place Temperature

Stations

Nearby Weather Stations

Station Location Temp. Windchill Dew Point Humidity Wind Precip. Elev Updated Type